createdAt,value
2017-07-28T00:00:07.017Z,52.73
2017-07-28T00:02:37.484Z,42.80
2017-07-28T00:05:08.084Z,39.60
2017-07-28T00:07:38.829Z,39.10
2017-07-28T00:10:15.589Z,38.90
2017-07-28T00:12:51.944Z,39.53
2017-07-28T00:15:22.392Z,34.20
2017-07-28T00:17:52.893Z,40.77
2017-07-28T00:20:24.036Z,41.80
2017-07-28T00:22:55.215Z,50.93
2017-07-28T00:25:25.704Z,32.90
2017-07-28T00:27:56.121Z,32.73
2017-07-28T00:30:26.585Z,38.83
2017-07-28T00:32:57.235Z,37.87
2017-07-28T00:35:27.765Z,39.43
2017-07-28T00:37:58.242Z,36.00
2017-07-28T00:40:28.521Z,27.10
2017-07-28T00:42:59.408Z,39.43
2017-07-28T00:45:29.788Z,42.80
2017-07-28T00:48:06.772Z,38.33
2017-07-28T00:50:43.108Z,42.30
2017-07-28T00:53:20.415Z,42.93
2017-07-28T00:55:58.763Z,32.63
2017-07-28T00:58:29.204Z,33.03
2017-07-28T01:00:59.647Z,36.80
2017-07-28T01:03:29.998Z,28.80
2017-07-28T01:06:01.236Z,33.47
2017-07-28T01:08:32.587Z,26.57
2017-07-28T01:11:02.924Z,25.50
2017-07-28T01:13:33.519Z,21.87
2017-07-28T01:16:05.760Z,24.13
2017-07-28T01:18:36.228Z,16.87
2017-07-28T01:21:06.391Z,19.97
2017-07-28T01:23:36.934Z,22.80
2017-07-28T01:26:07.524Z,24.73
2017-07-28T01:28:37.998Z,17.73
2017-07-28T01:31:08.321Z,19.80
2017-07-28T01:33:38.840Z,20.30
2017-07-28T01:36:09.276Z,21.13
2017-07-28T01:38:39.654Z,22.63
2017-07-28T01:41:10.477Z,18.57
2017-07-28T01:43:40.733Z,21.90
2017-07-28T01:46:11.279Z,26.37
2017-07-28T01:51:28.329Z,20.03
2017-07-28T01:54:01.467Z,28.30
2017-07-28T01:56:35.740Z,23.83
2017-07-28T01:59:09.475Z,23.17
2017-07-28T02:01:41.502Z,23.57
2017-07-28T02:04:15.887Z,33.23
2017-07-28T02:06:54.142Z,23.90
2017-07-28T02:09:24.419Z,25.17
2017-07-28T02:11:54.760Z,27.57
2017-07-28T02:14:25.276Z,25.50
2017-07-28T02:16:56.036Z,29.87
2017-07-28T02:19:27.296Z,33.83
2017-07-28T02:21:58.541Z,23.83
2017-07-28T02:24:29.740Z,32.07
2017-07-28T02:27:00.297Z,25.40
2017-07-28T02:29:30.620Z,33.60
2017-07-28T02:32:01.163Z,25.40
2017-07-28T02:34:31.424Z,31.47
2017-07-28T02:37:01.724Z,25.53
2017-07-28T02:39:32.768Z,28.70
2017-07-28T02:42:04.254Z,33.17
2017-07-28T02:44:34.816Z,21.00
2017-07-28T02:47:05.280Z,24.87
2017-07-28T02:49:36.390Z,26.33
2017-07-28T02:52:06.668Z,24.10
2017-07-28T02:54:36.967Z,31.33
2017-07-28T02:57:07.394Z,32.33
2017-07-28T02:59:37.899Z,31.60
2017-07-28T03:02:08.658Z,36.90
2017-07-28T03:04:39.952Z,52.17
2017-07-28T03:07:10.176Z,36.03
2017-07-28T03:09:40.947Z,50.23
2017-07-28T03:12:11.328Z,50.67
2017-07-28T03:14:41.721Z,52.87
2017-07-28T03:17:12.152Z,63.77
2017-07-28T03:19:47.754Z,53.20
2017-07-28T03:22:18.034Z,49.10
2017-07-28T03:24:49.052Z,48.27
2017-07-28T03:27:19.686Z,45.77
2017-07-28T03:29:55.603Z,42.50
2017-07-28T03:32:31.738Z,50.07
2017-07-28T03:35:08.545Z,39.83
2017-07-28T03:37:38.970Z,41.53
2017-07-28T03:40:09.241Z,32.53
2017-07-28T03:42:39.784Z,27.37
2017-07-28T03:45:10.916Z,41.67
2017-07-28T03:47:41.811Z,35.93
2017-07-28T03:50:12.723Z,34.47
2017-07-28T03:52:44.160Z,23.10
2017-07-28T03:55:14.704Z,27.70
2017-07-28T03:57:45.998Z,34.77
2017-07-28T04:00:17.163Z,37.87
2017-07-28T04:02:48.610Z,42.53
2017-07-28T04:05:19.289Z,33.27
2017-07-28T04:07:50.332Z,27.70
2017-07-28T04:10:20.932Z,27.53
2017-07-28T04:12:51.544Z,27.90
2017-07-28T04:15:21.849Z,24.60
2017-07-28T04:17:52.287Z,20.70
2017-07-28T04:20:22.776Z,30.77
2017-07-28T04:22:53.035Z,32.03
2017-07-28T04:25:31.270Z,37.20
2017-07-28T04:28:07.318Z,32.23
2017-07-28T04:30:49.796Z,28.90
2017-07-28T04:33:29.277Z,28.00
2017-07-28T04:36:06.186Z,22.30
2017-07-28T04:38:44.368Z,24.23
2017-07-28T04:41:15.885Z,17.70
2017-07-28T04:43:46.315Z,23.33
2017-07-28T04:46:16.740Z,32.77
2017-07-28T04:48:47.665Z,37.47
2017-07-28T04:51:22.046Z,18.87
2017-07-28T04:54:00.741Z,13.63
2017-07-28T04:56:38.167Z,13.20
2017-07-28T04:59:16.033Z,19.23
2017-07-28T05:01:47.212Z,19.43
2017-07-28T05:04:17.598Z,21.20
2017-07-28T05:06:47.994Z,25.03
2017-07-28T05:09:18.387Z,25.33
2017-07-28T05:11:48.946Z,18.13
2017-07-28T05:14:19.535Z,21.27
2017-07-28T05:16:50.197Z,24.83
2017-07-28T05:19:20.899Z,19.20
2017-07-28T05:21:51.270Z,13.07
2017-07-28T05:24:21.633Z,13.97
2017-07-28T05:26:53.107Z,10.00
2017-07-28T05:29:23.720Z,12.20
2017-07-28T05:31:54.839Z,14.90
2017-07-28T05:37:10.782Z,11.93
2017-07-28T05:39:46.504Z,10.03
2017-07-28T05:42:23.359Z,10.17
2017-07-28T05:44:53.868Z,10.13
2017-07-28T05:47:24.234Z,11.37
2017-07-28T05:49:54.829Z,13.60
2017-07-28T05:52:25.138Z,10.53
2017-07-28T05:54:57.942Z,9.53
2017-07-28T05:57:28.639Z,11.83
2017-07-28T05:59:59.709Z,15.10
2017-07-28T06:02:30.179Z,11.00
2017-07-28T06:05:00.562Z,22.40
2017-07-28T06:07:30.951Z,16.00
2017-07-28T06:10:02.196Z,30.03
2017-07-28T06:12:32.868Z,16.00
2017-07-28T06:15:03.637Z,15.93
2017-07-28T06:17:33.898Z,18.53
2017-07-28T06:20:05.128Z,10.77
2017-07-28T06:22:35.558Z,17.23
2017-07-28T06:25:05.797Z,17.80
2017-07-28T06:27:36.214Z,11.80
2017-07-28T06:30:06.847Z,8.13
2017-07-28T06:32:37.446Z,11.30
2017-07-28T06:35:08.330Z,9.27
2017-07-28T06:37:38.841Z,9.47
2017-07-28T06:40:09.289Z,13.47
2017-07-28T06:42:40.456Z,15.83
2017-07-28T06:45:10.864Z,9.57
2017-07-28T06:47:41.388Z,8.40
2017-07-28T06:50:12.885Z,7.90
2017-07-28T06:52:43.156Z,6.40
2017-07-28T06:55:13.519Z,7.53
2017-07-28T06:57:43.895Z,13.10
2017-07-28T07:00:14.255Z,11.57
2017-07-28T07:02:45.648Z,13.80
2017-07-28T07:05:16.040Z,8.60
2017-07-28T07:07:47.148Z,10.10
2017-07-28T07:10:17.571Z,7.03
2017-07-28T07:12:47.844Z,7.00
2017-07-28T07:15:18.913Z,16.00
2017-07-28T07:17:49.332Z,23.77
2017-07-28T07:20:19.752Z,21.27
2017-07-28T07:22:56.836Z,20.43
2017-07-28T07:25:32.216Z,25.53
2017-07-28T07:28:05.427Z,26.87
2017-07-28T07:30:48.899Z,25.73
2017-07-28T07:33:19.621Z,31.40
2017-07-28T07:35:50.997Z,37.83
2017-07-28T07:38:21.616Z,44.33
2017-07-28T07:40:52.792Z,26.50
2017-07-28T07:43:23.363Z,31.03
2017-07-28T07:45:53.727Z,47.70
2017-07-28T07:48:24.052Z,28.20
2017-07-28T07:50:54.423Z,21.67
2017-07-28T07:53:24.734Z,27.33
2017-07-28T07:55:55.227Z,17.17
2017-07-28T07:58:26.415Z,21.10
2017-07-28T08:00:56.598Z,21.00
2017-07-28T08:03:27.711Z,20.30
2017-07-28T08:05:58.073Z,24.37
2017-07-28T08:08:29.381Z,24.50
2017-07-28T08:10:59.553Z,20.93
2017-07-28T08:13:30.162Z,17.97
2017-07-28T08:16:01.522Z,19.70
2017-07-28T08:18:32.608Z,24.37
2017-07-28T08:21:02.883Z,26.03
2017-07-28T08:23:40.090Z,22.73
2017-07-28T08:26:16.155Z,18.83
2017-07-28T08:28:56.033Z,18.30
2017-07-28T08:31:28.748Z,23.73
2017-07-28T08:33:59.068Z,21.00
2017-07-28T08:36:29.252Z,23.20
2017-07-28T08:38:59.641Z,24.73
2017-07-28T08:41:29.794Z,24.30
2017-07-28T08:44:00.065Z,20.33
2017-07-28T08:46:30.507Z,22.23
2017-07-28T08:49:04.838Z,22.30
2017-07-28T08:51:41.315Z,19.93
2017-07-28T08:54:18.454Z,22.00
2017-07-28T08:56:54.376Z,23.30
2017-07-28T08:59:24.820Z,27.77
2017-07-28T09:01:55.025Z,20.00
2017-07-28T09:04:25.512Z,20.43
2017-07-28T09:06:55.977Z,24.30
2017-07-28T09:09:27.104Z,20.03
2017-07-28T09:11:58.596Z,21.60
2017-07-28T09:14:29.161Z,20.47
2017-07-28T09:16:59.527Z,16.47
2017-07-28T09:19:30.739Z,18.30
2017-07-28T09:22:01.095Z,21.07
2017-07-28T09:24:32.512Z,31.97
2017-07-28T09:27:02.976Z,28.47
2017-07-28T09:29:34.646Z,19.40
2017-07-28T09:32:05.239Z,19.63
2017-07-28T09:34:36.207Z,15.77
2017-07-28T09:37:07.664Z,16.30
2017-07-28T09:39:38.910Z,21.83
2017-07-28T09:42:09.441Z,19.93
2017-07-28T09:44:40.825Z,18.13
2017-07-28T09:47:12.259Z,17.40
2017-07-28T09:49:42.638Z,19.53
2017-07-28T09:52:13.085Z,22.27
2017-07-28T09:54:43.504Z,28.80
2017-07-28T09:57:13.809Z,17.63
2017-07-28T09:59:46.590Z,16.37
2017-07-28T10:05:12.316Z,24.90
2017-07-28T10:16:09.305Z,26.50
2017-07-28T10:18:58.286Z,26.93
2017-07-28T10:24:29.554Z,22.10
2017-07-28T10:27:00.356Z,20.50
2017-07-28T10:32:27.656Z,22.90
2017-07-28T10:34:58.080Z,25.30
2017-07-28T10:40:22.514Z,22.57
2017-07-28T10:45:38.007Z,25.40
2017-07-28T10:57:01.905Z,31.53
2017-07-28T10:59:42.429Z,26.50
2017-07-28T11:05:09.484Z,28.13
2017-07-28T11:16:12.946Z,27.00
2017-07-28T11:18:46.243Z,21.73
2017-07-28T11:27:08.013Z,18.30
2017-07-28T11:32:30.416Z,22.33
2017-07-28T11:35:14.971Z,24.40
2017-07-28T11:37:45.528Z,22.57
2017-07-28T11:40:16.829Z,22.13
2017-07-28T11:42:58.785Z,22.97
2017-07-28T11:45:31.314Z,23.10
2017-07-28T11:48:02.665Z,23.60
2017-07-28T11:53:33.718Z,30.67
2017-07-28T12:04:45.180Z,25.97
2017-07-28T12:07:27.657Z,25.33
2017-07-28T12:10:16.935Z,34.37
2017-07-28T12:12:50.085Z,28.73
2017-07-28T12:21:04.056Z,26.60
2017-07-28T12:23:35.677Z,30.03
2017-07-28T12:26:22.058Z,35.33
2017-07-28T12:31:48.264Z,38.17
2017-07-28T12:34:19.442Z,31.00
2017-07-28T12:36:50.211Z,37.00
2017-07-28T12:39:20.943Z,35.53
2017-07-28T12:42:01.430Z,30.97
2017-07-28T12:44:48.909Z,42.63
2017-07-28T12:50:17.368Z,35.13
2017-07-28T12:55:47.898Z,33.63
2017-07-28T12:58:20.752Z,37.70
2017-07-28T13:06:59.899Z,31.33
2017-07-28T13:20:59.967Z,25.37
2017-07-28T13:23:47.975Z,26.60
2017-07-28T13:26:36.665Z,26.50
2017-07-28T13:29:19.541Z,34.07
2017-07-28T13:34:38.526Z,40.13
2017-07-28T13:37:10.538Z,29.33
2017-07-28T13:39:44.197Z,33.90
2017-07-28T13:42:28.598Z,25.63
2017-07-28T13:45:01.762Z,38.00
2017-07-28T13:53:17.119Z,32.73
2017-07-28T13:58:58.249Z,35.00
2017-07-28T14:04:26.847Z,32.43
2017-07-28T14:07:06.162Z,30.17
2017-07-28T14:12:26.201Z,32.93
2017-07-28T14:15:14.236Z,38.43
2017-07-28T14:20:33.255Z,34.07
2017-07-28T14:23:09.788Z,41.80
2017-07-28T14:25:50.371Z,40.13
2017-07-28T14:28:27.405Z,33.30
2017-07-28T14:31:00.088Z,32.30
2017-07-28T14:33:41.992Z,34.10
2017-07-28T14:36:13.163Z,40.77
2017-07-28T14:38:48.471Z,35.30
2017-07-28T14:44:13.735Z,42.30
2017-07-28T14:46:45.642Z,33.67
2017-07-28T14:49:18.483Z,37.50
2017-07-28T14:52:11.654Z,40.10
2017-07-28T14:54:45.725Z,35.93
2017-07-28T14:57:18.288Z,40.30
2017-07-28T14:59:57.783Z,40.23
2017-07-28T15:02:45.808Z,42.90
2017-07-28T15:05:26.809Z,32.13
2017-07-28T15:08:07.428Z,45.27
2017-07-28T15:10:47.719Z,25.33
2017-07-28T15:13:33.452Z,32.07
2017-07-28T15:16:15.827Z,26.17
2017-07-28T15:18:49.494Z,21.60
2017-07-28T15:21:23.874Z,24.27
2017-07-28T15:24:18.710Z,21.83
2017-07-28T15:35:21.738Z,26.60
2017-07-28T15:43:42.554Z,25.63
2017-07-28T15:46:17.659Z,30.33
2017-07-28T15:57:09.133Z,31.90
2017-07-28T15:59:52.159Z,30.60
2017-07-28T16:08:20.891Z,38.13
2017-07-28T16:10:55.228Z,39.07
2017-07-28T16:16:19.040Z,41.77
2017-07-28T16:18:50.164Z,25.77
2017-07-28T16:21:42.352Z,23.27
2017-07-28T16:27:14.462Z,32.93
2017-07-28T16:35:20.299Z,30.17
2017-07-28T16:37:51.297Z,33.73
2017-07-28T16:49:18.327Z,26.80
2017-07-28T16:52:01.879Z,31.13
2017-07-28T16:54:41.187Z,34.30
2017-07-28T16:57:13.916Z,24.40
2017-07-28T16:59:45.400Z,32.43
2017-07-28T17:02:32.599Z,26.33
2017-07-28T17:08:01.650Z,30.63
2017-07-28T17:10:43.514Z,46.83
2017-07-28T17:13:25.549Z,36.87
2017-07-28T17:18:47.836Z,36.50
2017-07-28T17:24:09.236Z,38.70
2017-07-28T17:26:50.151Z,32.10
2017-07-28T17:29:22.378Z,41.17
2017-07-28T17:41:54.195Z,44.50
2017-07-28T17:47:26.095Z,42.97
2017-07-28T17:49:57.199Z,51.20
2017-07-28T17:55:33.220Z,52.33
2017-07-28T18:03:45.357Z,40.07
2017-07-28T18:06:17.577Z,64.67
2017-07-28T18:08:47.871Z,44.73
2017-07-28T18:11:29.194Z,47.60
2017-07-28T18:14:17.683Z,43.77
2017-07-28T18:16:49.405Z,46.53
2017-07-28T18:19:20.702Z,51.43
2017-07-28T18:22:04.168Z,53.03
2017-07-28T18:27:27.694Z,45.47
2017-07-28T18:30:10.235Z,59.00
2017-07-28T18:32:43.412Z,60.43
2017-07-28T18:35:28.651Z,44.23
2017-07-28T18:38:18.262Z,52.63
2017-07-28T18:41:01.171Z,54.63
2017-07-28T18:43:39.662Z,44.10
2017-07-28T18:51:50.696Z,51.13
2017-07-28T18:57:28.491Z,48.97
2017-07-28T19:00:12.750Z,50.53
2017-07-28T19:02:49.948Z,50.00
2017-07-28T19:05:31.489Z,38.80
2017-07-28T19:16:28.800Z,41.90
2017-07-28T19:19:15.379Z,54.37
2017-07-28T19:21:47.054Z,66.90
2017-07-28T19:24:18.955Z,53.17
2017-07-28T19:27:09.153Z,53.70
2017-07-28T19:29:42.126Z,56.17
2017-07-28T19:32:14.708Z,53.43
2017-07-28T19:40:17.763Z,40.00
2017-07-28T19:42:51.190Z,38.93
2017-07-28T19:48:17.899Z,41.90
2017-07-28T19:53:39.979Z,40.53
2017-07-28T19:56:24.343Z,41.33
2017-07-28T19:59:00.261Z,45.47
2017-07-28T20:01:50.026Z,50.47
2017-07-28T20:04:23.160Z,43.43
2017-07-28T20:06:55.776Z,49.63
2017-07-28T20:09:28.150Z,46.87
2017-07-28T20:12:20.901Z,56.53
2017-07-28T20:15:09.659Z,54.50
2017-07-28T20:17:44.378Z,43.20
2017-07-28T20:20:16.247Z,41.70
2017-07-28T20:31:19.490Z,35.47
2017-07-28T20:33:51.579Z,31.37
2017-07-28T20:36:23.644Z,39.87
2017-07-28T20:42:02.113Z,37.63
2017-07-28T20:44:47.570Z,38.80
2017-07-28T20:52:56.907Z,34.80
2017-07-28T20:55:29.316Z,46.13
2017-07-28T21:00:58.483Z,44.37
2017-07-28T21:03:41.903Z,41.33
2017-07-28T21:06:24.287Z,44.37
2017-07-28T21:08:55.732Z,37.03
2017-07-28T21:11:26.873Z,30.97
2017-07-28T21:17:25.879Z,39.37
2017-07-28T21:19:58.028Z,30.50
2017-07-28T21:28:06.454Z,42.70
2017-07-28T21:33:24.879Z,37.73
2017-07-28T21:36:02.456Z,31.63
2017-07-28T21:41:31.024Z,37.00
2017-07-28T21:44:07.807Z,46.30
2017-07-28T21:46:38.588Z,37.37
2017-07-28T21:49:09.711Z,29.67
2017-07-28T21:51:42.159Z,26.33
2017-07-28T21:57:02.618Z,34.13
2017-07-28T21:59:53.164Z,30.33
2017-07-28T22:02:26.799Z,33.00
2017-07-28T22:04:58.252Z,42.13
2017-07-28T22:07:46.919Z,30.37
2017-07-28T22:10:23.966Z,45.80
2017-07-28T22:12:54.843Z,39.70
2017-07-28T22:15:31.371Z,36.67
2017-07-28T22:18:04.019Z,29.97
2017-07-28T22:20:35.726Z,37.67
2017-07-28T22:28:51.127Z,32.73
2017-07-28T22:31:24.111Z,30.77
2017-07-28T22:33:57.055Z,29.17
2017-07-28T22:42:12.255Z,34.60
2017-07-28T22:44:43.020Z,40.20
2017-07-28T22:50:00.650Z,26.47
2017-07-28T22:52:33.857Z,40.50
2017-07-28T22:57:47.993Z,36.77
2017-07-28T23:00:18.773Z,44.13
2017-07-28T23:02:50.288Z,35.23
2017-07-28T23:08:19.870Z,28.97
2017-07-28T23:10:55.941Z,35.40
2017-07-28T23:19:04.780Z,40.70
2017-07-28T23:21:43.494Z,44.07
2017-07-28T23:27:10.854Z,35.27
2017-07-28T23:32:32.967Z,33.67
2017-07-28T23:35:16.713Z,36.83
2017-07-28T23:37:50.793Z,37.83
2017-07-28T23:40:21.979Z,42.40
2017-07-28T23:43:08.506Z,34.83
2017-07-28T23:45:45.663Z,43.23
2017-07-28T23:48:27.591Z,35.83
2017-07-28T23:51:15.045Z,29.10
2017-07-28T23:53:52.250Z,34.00
2017-07-28T23:56:24.414Z,30.33
2017-07-28T23:59:01.690Z,32.73
